createdAt,value
2023-05-19T00:01:00.471Z,99790.09
2023-05-19T00:03:27.477Z,99769.88
2023-05-19T00:05:54.617Z,99752.22
2023-05-19T00:08:24.763Z,99747.41
2023-05-19T00:10:51.501Z,99749.19
2023-05-19T00:13:20.032Z,99746.53
2023-05-19T00:15:47.241Z,99735.84
2023-05-19T00:18:14.470Z,99711.56
2023-05-19T00:20:41.552Z,99670.72
2023-05-19T00:23:08.537Z,99569.09
2023-05-19T00:25:35.919Z,99479.34
2023-05-19T00:28:03.346Z,99503.34
2023-05-19T00:30:30.955Z,99452.19
2023-05-19T00:32:57.735Z,99454.81
2023-05-19T00:35:24.537Z,99435.88
2023-05-19T00:37:53.701Z,99400.31
2023-05-19T00:40:20.851Z,99403.69
2023-05-19T00:42:47.474Z,99383.78
2023-05-19T00:45:14.310Z,99342.50
2023-05-19T00:47:40.855Z,99296.00
2023-05-19T00:50:07.808Z,99277.75
2023-05-19T00:52:34.464Z,99243.84
2023-05-19T00:55:01.350Z,99205.06
2023-05-19T00:57:28.455Z,99220.66
2023-05-19T00:59:55.083Z,99194.06
2023-05-19T01:02:21.817Z,99191.50
2023-05-19T01:04:50.236Z,99205.66
2023-05-19T01:07:16.811Z,99205.47
2023-05-19T01:09:43.768Z,99196.25
2023-05-19T01:12:10.666Z,99205.72
2023-05-19T01:14:37.694Z,99236.06
2023-05-19T01:17:10.372Z,99216.50
2023-05-19T01:20:02.432Z,99228.53
2023-05-19T01:22:55.007Z,99212.09
2023-05-19T01:25:45.846Z,99194.75
2023-05-19T01:28:47.669Z,99167.28
2023-05-19T01:31:16.946Z,99168.53
2023-05-19T01:33:45.521Z,99138.88
2023-05-19T01:36:13.686Z,99135.53
2023-05-19T01:38:40.637Z,99096.44
2023-05-19T01:41:11.312Z,99114.09
2023-05-19T01:43:39.562Z,99114.47
2023-05-19T01:46:07.279Z,99098.44
2023-05-19T01:48:34.206Z,99093.34
2023-05-19T01:51:00.808Z,99065.97
2023-05-19T01:53:27.619Z,99090.16
2023-05-19T01:55:55.987Z,99098.34
2023-05-19T01:58:45.839Z,99051.56
2023-05-19T02:01:34.203Z,99047.03
2023-05-19T02:04:16.292Z,99047.97
2023-05-19T02:07:03.821Z,99045.44
2023-05-19T02:09:50.601Z,99017.41
2023-05-19T02:12:32.721Z,99027.19
2023-05-19T02:15:05.250Z,99018.00
2023-05-19T02:17:36.295Z,99002.69
2023-05-19T02:20:06.775Z,98999.16
2023-05-19T02:22:33.383Z,98993.34
2023-05-19T02:25:00.446Z,98935.41
2023-05-19T02:27:27.267Z,98930.88
2023-05-19T02:29:53.912Z,98932.38
2023-05-19T02:32:20.953Z,98943.66
2023-05-19T02:34:48.421Z,98954.28
2023-05-19T02:37:16.115Z,98939.75
2023-05-19T02:39:43.526Z,98916.59
2023-05-19T02:42:10.518Z,98903.13
2023-05-19T02:44:37.184Z,98891.91
2023-05-19T02:47:03.811Z,98862.16
2023-05-19T02:49:36.129Z,98845.91
2023-05-19T02:52:06.202Z,98850.91
2023-05-19T02:54:34.344Z,98858.28
2023-05-19T02:57:01.547Z,98888.59
2023-05-19T02:59:28.858Z,98888.47
2023-05-19T03:01:57.627Z,98935.81
2023-05-19T03:04:24.293Z,98933.09
2023-05-19T03:06:51.086Z,98950.28
2023-05-19T03:09:17.697Z,98939.34
2023-05-19T03:11:44.333Z,98959.41
2023-05-19T03:14:10.857Z,98957.09
2023-05-19T03:16:37.711Z,98952.06
2023-05-19T03:19:04.398Z,98934.19
2023-05-19T03:21:32.266Z,98913.06
2023-05-19T03:23:58.863Z,98901.53
2023-05-19T03:26:25.494Z,98913.56
2023-05-19T03:28:52.153Z,98856.66
2023-05-19T03:31:18.790Z,98877.34
2023-05-19T03:33:45.499Z,98888.59
2023-05-19T03:36:12.854Z,98909.44
2023-05-19T03:38:39.571Z,98920.50
2023-05-19T03:41:07.111Z,98905.59
2023-05-19T03:43:33.726Z,98911.81
2023-05-19T03:46:00.548Z,98916.13
2023-05-19T03:48:27.399Z,98919.28
2023-05-19T03:50:54.637Z,98928.59
2023-05-19T03:53:21.203Z,98949.53
2023-05-19T03:55:49.750Z,98919.31
2023-05-19T03:58:16.882Z,98893.53
2023-05-19T04:00:43.487Z,98857.56
2023-05-19T04:03:10.512Z,98783.38
2023-05-19T04:05:37.344Z,98739.69
2023-05-19T04:08:04.979Z,98738.34
2023-05-19T04:10:31.994Z,98732.06
2023-05-19T04:12:59.389Z,98726.97
2023-05-19T04:15:26.245Z,98754.69
2023-05-19T04:17:52.884Z,98811.19
2023-05-19T04:20:19.529Z,98870.53
2023-05-19T04:22:46.089Z,98898.63
2023-05-19T04:25:13.284Z,98908.22
2023-05-19T04:27:40.078Z,98932.06
2023-05-19T04:30:07.981Z,98908.59
2023-05-19T04:32:34.674Z,98929.34
2023-05-19T04:35:01.551Z,98985.56
2023-05-19T04:37:28.134Z,98997.81
2023-05-19T04:39:54.768Z,98989.56
2023-05-19T04:42:21.496Z,99001.41
2023-05-19T04:44:49.426Z,99025.94
2023-05-19T04:47:16.274Z,99061.75
2023-05-19T04:49:43.070Z,99091.53
2023-05-19T04:52:11.112Z,99076.13
2023-05-19T04:54:38.619Z,99100.91
2023-05-19T04:57:05.759Z,99150.00
2023-05-19T04:59:32.484Z,99152.22
2023-05-19T05:01:59.166Z,99121.25
2023-05-19T05:04:26.067Z,99105.63
2023-05-19T05:06:52.687Z,99083.13
2023-05-19T05:09:20.316Z,99123.72
2023-05-19T05:11:47.248Z,99158.16
2023-05-19T05:14:17.328Z,99198.13
2023-05-19T05:16:44.293Z,99208.38
2023-05-19T05:19:11.484Z,99228.97
2023-05-19T05:21:38.265Z,99233.47
2023-05-19T05:24:05.457Z,99195.50
2023-05-19T05:26:34.564Z,99198.25
2023-05-19T05:29:01.892Z,99233.63
2023-05-19T05:31:28.960Z,99239.50
2023-05-19T05:33:56.043Z,99253.50
2023-05-19T05:36:22.658Z,99282.41
2023-05-19T05:38:49.241Z,99307.34
2023-05-19T05:41:19.545Z,99317.41
2023-05-19T05:43:46.149Z,99352.47
2023-05-19T05:46:12.857Z,99391.22
2023-05-19T05:48:42.207Z,99434.81
2023-05-19T05:51:09.349Z,99478.31
2023-05-19T05:53:42.240Z,99517.59
2023-05-19T05:56:10.404Z,99564.81
2023-05-19T05:58:38.182Z,99599.31
2023-05-19T06:01:05.504Z,99613.03
2023-05-19T06:03:32.230Z,99637.78
2023-05-19T06:05:59.460Z,99669.53
2023-05-19T06:08:26.248Z,99680.31
2023-05-19T06:10:52.850Z,99703.66
2023-05-19T06:13:22.702Z,99729.50
2023-05-19T06:15:49.902Z,99737.59
2023-05-19T06:18:16.489Z,99751.00
2023-05-19T06:20:43.415Z,99778.81
2023-05-19T06:23:10.015Z,99784.94
2023-05-19T06:25:36.776Z,99775.28
2023-05-19T06:28:03.699Z,99812.59
2023-05-19T06:30:30.467Z,99796.50
2023-05-19T06:32:57.228Z,99815.81
2023-05-19T06:35:24.783Z,99821.19
2023-05-19T06:37:51.518Z,99807.50
2023-05-19T06:40:18.107Z,99844.47
2023-05-19T06:42:44.884Z,99856.19
2023-05-19T06:45:11.683Z,99865.72
2023-05-19T06:47:38.388Z,99879.34
2023-05-19T06:50:05.465Z,99881.63
2023-05-19T06:52:32.101Z,99875.38
2023-05-19T06:54:58.638Z,99883.41
2023-05-19T06:57:25.236Z,99875.88
2023-05-19T06:59:52.096Z,99879.72
2023-05-19T07:02:18.632Z,99889.13
2023-05-19T07:04:45.216Z,99898.81
2023-05-19T07:07:12.135Z,99891.03
2023-05-19T07:09:38.723Z,99897.28
2023-05-19T07:12:06.028Z,99896.06
2023-05-19T07:14:53.492Z,99898.44
2023-05-19T07:17:20.751Z,99893.50
2023-05-19T07:19:47.184Z,99901.78
2023-05-19T07:22:13.828Z,99898.00
2023-05-19T07:24:40.939Z,99893.16
2023-05-19T07:27:07.602Z,99893.47
2023-05-19T07:29:49.291Z,99900.22
2023-05-19T07:32:15.903Z,99900.25
2023-05-19T07:34:42.593Z,99889.53
2023-05-19T07:37:09.392Z,99909.53
2023-05-19T07:39:36.308Z,99886.97
2023-05-19T07:42:05.075Z,99891.84
2023-05-19T07:44:31.722Z,99892.47
2023-05-19T07:46:58.329Z,99874.31
2023-05-19T07:49:24.845Z,99898.19
2023-05-19T07:51:51.455Z,99889.75
2023-05-19T07:54:18.429Z,99883.63
2023-05-19T07:56:45.276Z,99880.63
2023-05-19T07:59:12.280Z,99891.03
2023-05-19T08:01:39.075Z,99877.59
2023-05-19T08:04:06.148Z,99857.69
2023-05-19T08:06:33.170Z,99866.19
2023-05-19T08:08:59.861Z,99862.78
2023-05-19T08:11:26.870Z,99855.44
2023-05-19T08:13:53.818Z,99869.19
2023-05-19T08:16:21.121Z,99870.34
2023-05-19T08:18:47.838Z,99864.03
2023-05-19T08:21:14.875Z,99865.56
2023-05-19T08:23:49.219Z,99862.06
2023-05-19T08:26:16.183Z,99835.16
2023-05-19T08:28:44.757Z,99852.94
2023-05-19T08:31:11.475Z,99836.41
2023-05-19T08:33:38.148Z,99827.22
2023-05-19T08:36:05.278Z,99841.38
2023-05-19T08:38:31.828Z,99847.09
2023-05-19T08:40:58.762Z,99841.47
2023-05-19T08:43:26.001Z,99839.25
2023-05-19T08:45:54.518Z,99843.56
2023-05-19T08:48:22.560Z,99841.09
2023-05-19T08:51:12.345Z,99837.88
2023-05-19T08:53:44.078Z,99836.91
2023-05-19T08:56:23.319Z,99815.66
2023-05-19T08:58:51.471Z,99828.88
2023-05-19T09:01:20.158Z,99827.22
2023-05-19T09:03:49.990Z,99826.13
2023-05-19T09:06:19.226Z,99822.94
2023-05-19T09:08:47.229Z,99810.75
2023-05-19T09:11:14.818Z,99813.88
2023-05-19T09:13:41.821Z,99830.72
2023-05-19T09:16:08.834Z,99807.09
2023-05-19T09:18:39.667Z,99823.72
2023-05-19T09:21:07.588Z,99815.72
2023-05-19T09:23:34.753Z,99816.47
2023-05-19T09:26:08.918Z,99820.63
2023-05-19T09:28:38.039Z,99804.50
2023-05-19T09:31:11.743Z,99801.63
2023-05-19T09:33:45.786Z,99809.78
2023-05-19T09:36:13.764Z,99815.06
2023-05-19T09:38:40.942Z,99817.00
2023-05-19T09:41:09.175Z,99812.72
2023-05-19T09:43:36.501Z,99813.28
2023-05-19T09:46:08.583Z,99805.94
2023-05-19T09:48:36.874Z,99797.03
2023-05-19T09:51:13.739Z,99796.94
2023-05-19T09:53:40.535Z,99811.19
2023-05-19T09:56:08.986Z,99788.38
2023-05-19T09:58:36.486Z,99788.88
2023-05-19T10:01:04.709Z,99772.00
2023-05-19T10:03:35.839Z,99780.06
2023-05-19T10:06:07.648Z,99788.72
2023-05-19T10:08:34.892Z,99755.84
2023-05-19T10:11:03.714Z,99783.63
2023-05-19T10:13:31.113Z,99782.06
2023-05-19T10:15:59.966Z,99787.16
2023-05-19T10:18:31.896Z,99774.16
2023-05-19T10:21:01.003Z,99791.97
2023-05-19T10:23:27.760Z,99795.94
2023-05-19T10:25:57.785Z,99777.56
2023-05-19T10:28:28.366Z,99780.16
2023-05-19T10:30:58.774Z,99785.00
2023-05-19T10:33:41.261Z,99772.97
2023-05-19T10:36:23.870Z,99774.34
2023-05-19T10:39:05.279Z,99763.03
2023-05-19T10:41:59.459Z,99775.00
2023-05-19T10:45:05.031Z,99762.19
2023-05-19T10:47:32.645Z,99755.47
2023-05-19T10:50:01.273Z,99768.00
2023-05-19T10:52:30.184Z,99760.38
2023-05-19T10:54:58.541Z,99778.41
2023-05-19T10:57:32.335Z,99776.00
2023-05-19T11:00:13.778Z,99765.19
2023-05-19T11:02:44.441Z,99770.56
2023-05-19T11:05:16.802Z,99769.66
2023-05-19T11:08:06.287Z,99766.59
2023-05-19T11:10:33.059Z,99759.59
2023-05-19T11:13:00.213Z,99757.84
2023-05-19T11:15:28.058Z,99757.06
2023-05-19T11:17:55.242Z,99753.56
2023-05-19T11:20:30.773Z,99766.00
2023-05-19T11:23:03.964Z,99758.72
2023-05-19T11:25:51.575Z,99755.03
2023-05-19T11:28:19.988Z,99750.78
2023-05-19T11:30:50.818Z,99763.09
2023-05-19T11:33:20.440Z,99756.47
2023-05-19T11:35:49.581Z,99752.41
2023-05-19T11:38:18.725Z,99748.59
2023-05-19T11:40:45.918Z,99764.03
2023-05-19T11:43:12.641Z,99741.63
2023-05-19T11:45:40.169Z,99747.34
2023-05-19T11:48:10.927Z,99746.13
2023-05-19T11:50:38.483Z,99748.59
2023-05-19T11:53:05.199Z,99747.84
2023-05-19T11:55:31.989Z,99748.50
2023-05-19T11:58:04.527Z,99743.66
2023-05-19T12:00:39.575Z,99731.97
2023-05-19T12:03:07.602Z,99752.38
2023-05-19T12:05:41.813Z,99745.84
2023-05-19T12:08:10.082Z,99750.53
2023-05-19T12:10:37.284Z,99740.88
2023-05-19T12:13:06.608Z,99724.16
2023-05-19T12:15:33.858Z,99724.78
2023-05-19T12:18:04.030Z,99733.66
2023-05-19T12:20:32.790Z,99737.47
2023-05-19T12:23:00.907Z,99715.84
2023-05-19T12:25:29.650Z,99719.25
2023-05-19T12:28:00.786Z,99732.38
2023-05-19T12:30:30.465Z,99723.47
2023-05-19T12:32:58.289Z,99724.59
2023-05-19T12:35:34.970Z,99710.94
2023-05-19T12:38:07.840Z,99713.38
2023-05-19T12:40:36.592Z,99714.06
2023-05-19T12:43:04.359Z,99735.41
2023-05-19T12:45:42.764Z,99724.91
2023-05-19T12:48:12.896Z,99711.88
2023-05-19T12:50:39.879Z,99687.06
2023-05-19T12:53:09.581Z,99696.53
2023-05-19T12:55:44.162Z,99693.06
2023-05-19T12:58:16.140Z,99691.31
2023-05-19T13:00:47.953Z,99694.00
2023-05-19T13:03:17.642Z,99711.84
2023-05-19T13:05:50.710Z,99714.91
2023-05-19T13:08:24.259Z,99709.31
2023-05-19T13:10:51.060Z,99706.50
2023-05-19T13:13:18.092Z,99708.03
2023-05-19T13:15:46.352Z,99661.47
2023-05-19T13:18:13.854Z,99702.78
2023-05-19T13:20:41.892Z,99702.50
2023-05-19T13:23:14.651Z,99709.63
2023-05-19T13:25:42.253Z,99699.25
2023-05-19T13:28:09.135Z,99699.91
2023-05-19T13:30:38.760Z,99705.97
2023-05-19T13:33:05.961Z,99691.47
2023-05-19T13:35:39.094Z,99694.63
2023-05-19T13:38:08.040Z,99710.44
2023-05-19T13:40:35.264Z,99713.28
2023-05-19T13:43:03.014Z,99695.88
2023-05-19T13:45:30.333Z,99688.22
2023-05-19T13:47:57.159Z,99689.94
2023-05-19T13:50:23.934Z,99694.78
2023-05-19T13:52:50.831Z,99689.41
2023-05-19T13:55:17.871Z,99692.72
2023-05-19T13:57:45.690Z,99698.59
2023-05-19T14:00:12.898Z,99692.59
2023-05-19T14:02:39.957Z,99696.88
2023-05-19T14:05:07.586Z,99697.25
2023-05-19T14:07:35.213Z,99688.28
2023-05-19T14:10:08.421Z,99706.56
2023-05-19T14:12:49.384Z,99689.34
2023-05-19T14:15:19.827Z,99695.47
2023-05-19T14:17:46.385Z,99695.53
2023-05-19T14:20:13.077Z,99673.72
2023-05-19T14:22:39.530Z,99691.53
2023-05-19T14:25:06.832Z,99688.31
2023-05-19T14:27:33.458Z,99699.38
2023-05-19T14:30:00.177Z,99706.50
2023-05-19T14:32:28.625Z,99707.44
2023-05-19T14:34:56.772Z,99709.97
2023-05-19T14:37:23.298Z,99694.81
2023-05-19T14:39:55.218Z,99708.47
2023-05-19T14:42:21.907Z,99708.31
2023-05-19T14:44:50.466Z,99702.63
2023-05-19T14:47:17.165Z,99709.13
2023-05-19T14:49:43.826Z,99712.38
2023-05-19T14:52:10.829Z,99709.38
2023-05-19T14:54:37.347Z,99704.16
2023-05-19T14:57:04.739Z,99665.41
2023-05-19T14:59:31.413Z,99700.22
2023-05-19T15:01:58.115Z,99691.53
2023-05-19T15:04:24.886Z,99692.81
2023-05-19T15:07:05.756Z,99690.47
2023-05-19T15:09:36.241Z,99693.72
2023-05-19T15:12:02.899Z,99665.56
2023-05-19T15:14:30.862Z,99688.28
2023-05-19T15:16:58.157Z,99663.91
2023-05-19T15:19:27.431Z,99677.63
2023-05-19T15:21:54.336Z,99674.97
2023-05-19T15:24:20.922Z,99665.28
2023-05-19T15:26:47.769Z,99664.44
2023-05-19T15:29:14.582Z,99674.91
2023-05-19T15:31:41.734Z,99674.28
2023-05-19T15:34:09.336Z,99671.31
2023-05-19T15:36:35.991Z,99671.31
2023-05-19T15:39:03.977Z,99674.34
2023-05-19T15:41:30.659Z,99659.91
2023-05-19T15:43:57.535Z,99655.75
2023-05-19T15:46:24.121Z,99660.94
2023-05-19T15:48:51.008Z,99654.91
2023-05-19T15:51:17.736Z,99659.22
2023-05-19T15:53:44.490Z,99653.25
2023-05-19T15:56:11.134Z,99651.56
2023-05-19T15:58:37.820Z,99651.38
2023-05-19T16:01:05.767Z,99661.94
2023-05-19T16:03:32.620Z,99659.25
2023-05-19T16:05:59.420Z,99647.19
2023-05-19T16:08:26.394Z,99651.19
2023-05-19T16:10:54.847Z,99654.75
2023-05-19T16:13:21.930Z,99651.41
2023-05-19T16:15:48.779Z,99635.19
2023-05-19T16:18:18.379Z,99650.25
2023-05-19T16:20:45.328Z,99653.91
2023-05-19T16:23:12.275Z,99646.88
2023-05-19T16:25:41.370Z,99644.22
2023-05-19T16:28:22.453Z,99604.75
2023-05-19T16:30:50.407Z,99647.56
2023-05-19T16:33:16.972Z,99643.53
2023-05-19T16:35:43.649Z,99641.72
2023-05-19T16:38:10.189Z,99635.34
2023-05-19T16:40:40.065Z,99634.03
2023-05-19T16:43:06.669Z,99635.34
2023-05-19T16:45:33.276Z,99629.16
2023-05-19T16:47:59.867Z,99624.81
2023-05-19T16:50:26.475Z,99610.09
2023-05-19T16:52:53.105Z,99635.34
2023-05-19T16:55:20.393Z,99635.16
2023-05-19T16:57:47.255Z,99628.50
2023-05-19T17:00:15.246Z,99624.81
2023-05-19T17:02:41.918Z,99620.81
2023-05-19T17:05:08.969Z,99628.84
2023-05-19T17:07:35.705Z,99627.84
2023-05-19T17:10:02.318Z,99629.81
2023-05-19T17:12:30.094Z,99614.28
2023-05-19T17:14:57.056Z,99619.47
2023-05-19T17:17:23.679Z,99592.75
2023-05-19T17:19:50.278Z,99613.44
2023-05-19T17:22:30.349Z,99619.97
2023-05-19T17:24:57.628Z,99616.78
2023-05-19T17:27:24.334Z,99615.66
2023-05-19T17:29:51.025Z,99612.78
2023-05-19T17:32:17.723Z,99613.63
2023-05-19T17:34:44.280Z,99621.66
2023-05-19T17:37:10.826Z,99616.44
2023-05-19T17:39:37.474Z,99617.28
2023-05-19T17:42:04.250Z,99625.31
2023-05-19T17:44:30.803Z,99615.78
2023-05-19T17:46:58.319Z,99619.47
2023-05-19T17:49:29.054Z,99612.97
2023-05-19T17:51:56.393Z,99589.06
2023-05-19T17:54:23.623Z,99603.09
2023-05-19T17:56:51.171Z,99604.94
2023-05-19T17:59:18.094Z,99598.75
2023-05-19T18:01:45.839Z,99600.44
2023-05-19T18:04:13.901Z,99610.59
2023-05-19T18:06:45.096Z,99609.41
2023-05-19T18:09:14.204Z,99605.75
2023-05-19T18:11:40.826Z,99604.41
2023-05-19T18:14:07.523Z,99607.91
2023-05-19T18:16:35.056Z,99599.06
2023-05-19T18:19:02.042Z,99604.06
2023-05-19T18:21:28.757Z,99578.94
2023-05-19T18:23:55.410Z,99600.66
2023-05-19T18:26:22.262Z,99600.00
2023-05-19T18:28:48.813Z,99601.97
2023-05-19T18:31:20.014Z,99604.28
2023-05-19T18:33:47.456Z,99581.53
2023-05-19T18:36:16.769Z,99616.91
2023-05-19T18:38:43.487Z,99595.16
2023-05-19T18:41:10.287Z,99607.53
2023-05-19T18:43:40.476Z,99620.84
2023-05-19T18:46:07.082Z,99593.75
2023-05-19T18:48:33.618Z,99597.69
2023-05-19T18:51:00.350Z,99587.31
2023-05-19T18:53:26.912Z,99578.47
2023-05-19T18:55:53.439Z,99580.28
2023-05-19T18:58:20.114Z,99581.22
2023-05-19T19:00:47.003Z,99589.91
2023-05-19T19:03:14.346Z,99592.50
2023-05-19T19:05:40.928Z,99590.28
2023-05-19T19:08:10.692Z,99581.78
2023-05-19T19:10:41.215Z,99589.03
2023-05-19T19:13:08.099Z,99565.25
2023-05-19T19:15:34.856Z,99582.75
2023-05-19T19:18:01.524Z,99575.91
2023-05-19T19:20:28.186Z,99578.75
2023-05-19T19:22:55.297Z,99574.38
2023-05-19T19:25:23.660Z,99574.63
2023-05-19T19:27:50.679Z,99557.38
2023-05-19T19:30:17.445Z,99567.09
2023-05-19T19:32:44.090Z,99565.19
2023-05-19T19:35:11.657Z,99557.13
2023-05-19T19:37:38.335Z,99564.66
2023-05-19T19:40:05.581Z,99560.09
2023-05-19T19:42:32.472Z,99567.78
2023-05-19T19:44:59.335Z,99559.13
2023-05-19T19:47:28.274Z,99554.25
2023-05-19T19:49:57.984Z,99554.69
2023-05-19T19:52:25.532Z,99552.03
2023-05-19T19:54:52.205Z,99555.22
2023-05-19T19:57:18.788Z,99542.97
2023-05-19T19:59:45.352Z,99557.66
2023-05-19T20:02:12.049Z,99561.69
2023-05-19T20:04:39.491Z,99553.25
2023-05-19T20:07:06.189Z,99533.56
2023-05-19T20:09:32.765Z,99521.31
2023-05-19T20:11:59.461Z,99524.06
2023-05-19T20:14:26.157Z,99535.28
2023-05-19T20:16:59.726Z,99526.16
2023-05-19T20:19:28.813Z,99510.97
2023-05-19T20:21:55.516Z,99518.25
2023-05-19T20:24:22.529Z,99520.03
2023-05-19T20:26:49.171Z,99513.91
2023-05-19T20:29:15.797Z,99531.66
2023-05-19T20:31:42.576Z,99523.59
2023-05-19T20:34:09.333Z,99516.91
2023-05-19T20:36:36.165Z,99501.81
2023-05-19T20:39:03.734Z,99497.19
2023-05-19T20:41:30.488Z,99493.75
2023-05-19T20:44:03.018Z,99474.34
2023-05-19T20:46:29.654Z,99484.88
2023-05-19T20:48:58.875Z,99470.41
2023-05-19T20:51:27.000Z,99463.25
2023-05-19T20:53:53.575Z,99450.13
2023-05-19T20:56:20.408Z,99474.16
2023-05-19T20:58:46.915Z,99473.34
2023-05-19T21:01:13.486Z,99466.09
2023-05-19T21:03:40.093Z,99455.16
2023-05-19T21:06:06.742Z,99447.59
2023-05-19T21:08:33.430Z,99453.75
2023-05-19T21:11:14.026Z,99454.16
2023-05-19T21:13:46.813Z,99454.53
2023-05-19T21:16:13.396Z,99442.81
2023-05-19T21:18:40.014Z,99455.25
2023-05-19T21:21:06.647Z,99451.19
2023-05-19T21:23:36.560Z,99452.88
2023-05-19T21:26:15.872Z,99450.59
2023-05-19T21:28:43.152Z,99457.56
2023-05-19T21:31:09.751Z,99458.13
2023-05-19T21:33:36.583Z,99461.47
2023-05-19T21:36:03.140Z,99453.25
2023-05-19T21:38:30.206Z,99465.94
2023-05-19T21:40:56.736Z,99460.25
2023-05-19T21:43:23.418Z,99473.78
2023-05-19T21:45:50.006Z,99460.94
2023-05-19T21:48:16.677Z,99454.50
2023-05-19T21:50:43.355Z,99458.13
2023-05-19T21:53:16.784Z,99455.91
2023-05-19T21:55:43.679Z,99455.63
2023-05-19T21:58:11.142Z,99449.59
2023-05-19T22:00:38.314Z,99437.72
2023-05-19T22:03:05.457Z,99428.94
2023-05-19T22:05:32.396Z,99407.56
2023-05-19T22:07:59.036Z,99404.16
2023-05-19T22:10:25.656Z,99386.06
2023-05-19T22:12:52.594Z,99378.91
2023-05-19T22:15:19.091Z,99373.91
2023-05-19T22:17:45.796Z,99361.28
2023-05-19T22:20:20.187Z,99360.59
2023-05-19T22:22:46.838Z,99343.28
2023-05-19T22:25:16.497Z,99336.97
2023-05-19T22:27:43.609Z,99333.09
2023-05-19T22:30:10.435Z,99325.66
2023-05-19T22:32:37.329Z,99328.69
2023-05-19T22:35:04.124Z,99299.97
2023-05-19T22:37:31.002Z,99312.75
2023-05-19T22:39:57.741Z,99309.41
2023-05-19T22:42:24.233Z,99316.06
2023-05-19T22:44:50.800Z,99331.44
2023-05-19T22:47:25.307Z,99318.59
2023-05-19T22:49:52.770Z,99303.03
2023-05-19T22:52:20.232Z,99285.22
2023-05-19T22:54:47.367Z,99281.44
2023-05-19T22:57:13.888Z,99280.75
2023-05-19T22:59:41.272Z,99266.63
2023-05-19T23:02:07.930Z,99262.75
2023-05-19T23:04:34.870Z,99248.94
2023-05-19T23:07:01.575Z,99240.13
2023-05-19T23:09:28.573Z,99230.09
2023-05-19T23:11:55.102Z,99226.84
2023-05-19T23:14:34.635Z,99222.50
2023-05-19T23:17:04.386Z,99212.81
2023-05-19T23:19:33.284Z,99204.84
2023-05-19T23:21:59.901Z,99184.19
2023-05-19T23:24:26.533Z,99177.34
2023-05-19T23:26:56.316Z,99176.88
2023-05-19T23:29:23.011Z,99164.22
2023-05-19T23:31:49.728Z,99136.06
2023-05-19T23:34:16.415Z,99146.78
2023-05-19T23:36:42.953Z,99162.25
2023-05-19T23:39:09.466Z,99135.81
2023-05-19T23:41:45.119Z,99130.97
2023-05-19T23:44:11.722Z,99071.78
2023-05-19T23:46:38.406Z,99108.66
2023-05-19T23:49:05.022Z,99082.97
2023-05-19T23:51:31.715Z,99095.69
2023-05-19T23:53:58.980Z,99087.72
2023-05-19T23:56:25.671Z,99081.16
2023-05-19T23:58:52.154Z,99097.19
